Time;durP1;ratioP1;P1;durP2;ratioP2;P2;SDS_P1;SDS_P2;PMS_P1;PMS_P2;Temp;Humidity;BMP_temperature;BMP_pressure;BME280_temperature;BME280_humidity;BME280_pressure;Samples;Min_cycle;Max_cycle;Signal;HPM_P1;HPM_P2
2022/07/23 00:01:17;;;;;;;3.50;1.15;;;;;;;14.35;100.00;156126.81;4983904;28;20042;-75
2022/07/23 00:03:42;;;;;;;4.20;1.05;;;;;;;14.35;100.00;156126.81;5004062;28;20054;-75
2022/07/23 00:06:08;;;;;;;3.40;1.00;;;;;;;14.37;100.00;156133.28;4989829;28;20038;-75
2022/07/23 00:08:34;;;;;;;3.80;1.05;;;;;;;14.38;100.00;156135.84;4984736;28;20042;-75
2022/07/23 00:11:00;;;;;;;2.40;0.90;;;;;;;14.35;100.00;156126.81;4986618;28;20375;-76
2022/07/23 00:13:26;;;;;;;6.40;1.23;;;;;;;14.36;100.00;156130.69;4970022;28;20046;-75
2022/07/23 00:15:52;;;;;;;7.57;1.23;;;;;;;14.36;100.00;156129.41;4998267;28;20169;-75
2022/07/23 00:18:18;;;;;;;3.75;1.23;;;;;;;14.37;100.00;156131.97;4985884;28;20761;-76
2022/07/23 00:20:43;;;;;;;7.78;1.70;;;;;;;14.31;100.00;156117.81;4963004;28;20053;-76
2022/07/23 00:23:09;;;;;;;7.38;1.40;;;;;;;14.34;100.00;156124.28;4983674;28;20557;-75
2022/07/23 00:25:35;;;;;;;6.38;1.58;;;;;;;14.31;100.00;156116.53;4965642;28;20034;-76
2022/07/23 00:28:02;;;;;;;5.03;1.42;;;;;;;14.36;100.00;156129.41;4987005;28;20057;-75
2022/07/23 00:30:31;;;;;;;6.18;1.27;;;;;;;14.34;100.00;156125.56;4985013;28;20475;-76
2022/07/23 00:33:00;;;;;;;11.48;1.42;;;;;;;14.35;100.00;156128.16;4983852;28;20499;-75
2022/07/23 00:35:28;;;;;;;3.60;1.45;;;;;;;14.30;100.00;156115.28;4984341;28;20045;-74
2022/07/23 00:37:55;;;;;;;7.05;1.30;;;;;;;14.29;100.00;156111.41;4981507;28;20030;-76
2022/07/23 00:40:22;;;;;;;6.50;1.10;;;;;;;14.26;100.00;156103.66;5001440;28;20041;-76
2022/07/23 00:42:48;;;;;;;2.53;1.00;;;;;;;14.25;100.00;156101.13;4997074;28;20177;-75
2022/07/23 00:45:13;;;;;;;4.88;1.17;;;;;;;14.27;100.00;156106.28;4980109;28;20140;-74
2022/07/23 00:47:39;;;;;;;3.28;1.13;;;;;;;14.19;100.00;156088.25;4982855;28;20039;-75
2022/07/23 00:50:08;;;;;;;7.45;1.17;;;;;;;14.16;100.00;156080.53;4984546;28;20153;-76
2022/07/23 00:52:35;;;;;;;6.97;1.00;;;;;;;14.14;100.00;156075.38;4982222;28;20528;-76
2022/07/23 00:55:02;;;;;;;6.03;0.95;;;;;;;14.14;100.00;156074.09;4967656;28;20065;-74
2022/07/23 00:57:28;;;;;;;3.78;0.85;;;;;;;14.17;100.00;156081.84;4981392;28;20039;-75
2022/07/23 00:59:54;;;;;;;2.95;0.90;;;;;;;14.24;100.00;156098.53;4987861;28;20089;-75
2022/07/23 01:02:20;;;;;;;6.68;1.10;;;;;;;14.23;100.00;156097.25;4967277;28;20050;-75
2022/07/23 01:04:46;;;;;;;2.85;0.88;;;;;;;14.19;100.00;156088.25;4985158;28;20046;-75
2022/07/23 01:07:11;;;;;;;3.20;0.80;;;;;;;14.13;100.00;156072.84;4987639;28;20042;-75
2022/07/23 01:09:38;;;;;;;3.03;0.90;;;;;;;14.10;100.00;156065.09;4982842;28;20404;-75
2022/07/23 01:12:05;;;;;;;5.43;1.10;;;;;;;14.12;100.00;156070.25;4983639;28;20030;-75
2022/07/23 01:14:30;;;;;;;5.65;0.98;;;;;;;14.06;100.00;156053.56;4974713;28;20038;-75
2022/07/23 01:16:56;;;;;;;5.60;1.02;;;;;;;13.95;100.00;156027.81;4980145;28;20038;-75
2022/07/23 01:19:21;;;;;;;4.80;0.90;;;;;;;13.88;100.00;156009.84;4984621;28;20049;-75
2022/07/23 01:21:50;;;;;;;6.53;1.00;;;;;;;13.83;100.00;155998.25;4975824;28;20081;-76
2022/07/23 01:24:18;;;;;;;8.27;1.13;;;;;;;13.70;100.00;155963.56;4994847;28;20042;-77
2022/07/23 01:26:53;;;;;;;4.60;1.00;;;;;;;13.71;100.00;155967.44;4959025;28;20488;-75
2022/07/23 01:29:20;;;;;;;5.15;0.80;;;;;;;13.69;100.00;155960.97;4985314;28;20042;-75
2022/07/23 01:31:47;;;;;;;3.70;0.90;;;;;;;13.68;100.00;155959.72;4986128;28;20084;-76
2022/07/23 01:34:13;;;;;;;5.18;1.05;;;;;;;13.63;100.00;155946.84;4970673;28;20749;-75
2022/07/23 01:36:39;;;;;;;7.65;1.20;;;;;;;13.64;100.00;155949.44;5002131;28;20064;-76
2022/07/23 01:39:07;;;;;;;3.55;1.00;;;;;;;13.60;100.00;155940.44;4988177;28;20407;-77
2022/07/23 01:41:33;;;;;;;7.00;1.30;;;;;;;13.57;100.00;155931.44;4986882;28;20046;-76
2022/07/23 01:43:59;;;;;;;3.42;1.02;;;;;;;13.54;100.00;155925.03;4981935;28;20034;-79
2022/07/23 01:46:25;;;;;;;3.75;0.95;;;;;;;13.53;100.00;155922.44;4978877;28;20488;-77
2022/07/23 01:48:51;;;;;;;3.22;0.88;;;;;;;13.52;100.00;155919.84;4987012;28;20038;-76
2022/07/23 01:51:36;;;;;;;4.05;1.13;;;;;;;13.54;100.00;155925.03;4996391;28;20042;-75
2022/07/23 01:54:06;;;;;;;8.20;1.25;;;;;;;13.59;100.00;155937.84;4978981;28;20034;-75
2022/07/23 01:56:32;;;;;;;3.10;0.85;;;;;;;13.58;100.00;155935.28;4981068;28;20039;-75
2022/07/23 01:58:58;;;;;;;8.00;1.10;;;;;;;13.52;100.00;155919.84;4960898;28;20039;-75
2022/07/23 02:01:23;;;;;;;3.45;0.88;;;;;;;13.49;100.00;155912.16;4998615;28;20541;-75
2022/07/23 02:03:49;;;;;;;4.13;1.00;;;;;;;13.46;100.00;155903.16;5002506;28;20038;-75
2022/07/23 02:06:15;;;;;;;5.30;1.10;;;;;;;13.51;100.00;155916.03;4984955;28;20054;-75
2022/07/23 02:08:40;;;;;;;2.30;0.75;;;;;;;13.54;100.00;155923.69;4965674;28;20234;-75
2022/07/23 02:11:06;;;;;;;3.67;0.90;;;;;;;13.51;100.00;155917.28;4969330;28;20034;-75
2022/07/23 02:13:32;;;;;;;4.18;0.90;;;;;;;13.57;100.00;155932.69;4957905;28;20038;-77
2022/07/23 02:15:59;;;;;;;3.28;1.02;;;;;;;13.51;100.00;155917.28;4980566;28;20045;-77
2022/07/23 02:18:24;;;;;;;4.20;0.90;;;;;;;13.46;100.00;155904.44;4983613;28;20034;-77
2022/07/23 02:20:51;;;;;;;7.75;1.05;;;;;;;13.48;100.00;155909.56;4972546;28;20046;-76
2022/07/23 02:23:17;;;;;;;3.67;1.20;;;;;;;13.47;100.00;155905.69;4980059;28;20061;-76
2022/07/23 02:25:42;;;;;;;4.20;1.08;;;;;;;13.37;100.00;155882.59;4995711;28;20064;-77
2022/07/23 02:28:09;;;;;;;4.07;1.15;;;;;;;13.35;100.00;155876.16;4965681;28;20174;-77
2022/07/23 02:30:35;;;;;;;4.53;1.20;;;;;;;13.28;100.00;155859.41;4951887;28;20575;-77
2022/07/23 02:33:01;;;;;;;3.92;0.90;;;;;;;13.24;100.00;155850.41;4983726;28;20514;-75
2022/07/23 02:35:26;;;;;;;2.88;0.98;;;;;;;13.21;100.00;155842.69;5000006;28;20050;-76
2022/07/23 02:37:52;;;;;;;13.35;1.65;;;;;;;13.14;100.00;155824.69;4971821;28;20640;-75
2022/07/23 02:40:18;;;;;;;3.30;1.58;;;;;;;13.10;100.00;155813.16;4969679;28;20037;-75
2022/07/23 02:42:44;;;;;;;5.97;1.25;;;;;;;12.96;100.00;155778.44;4975354;28;20066;-76
2022/07/23 02:45:10;;;;;;;4.47;1.00;;;;;;;12.94;100.00;155773.28;4970223;28;20076;-74
2022/07/23 02:47:36;;;;;;;4.18;1.17;;;;;;;12.89;100.00;155760.47;4985724;28;20473;-76
2022/07/23 02:50:03;;;;;;;3.92;1.20;;;;;;;12.85;100.00;155751.47;5002001;28;20037;-75
2022/07/23 02:52:29;;;;;;;4.10;1.50;;;;;;;12.80;100.00;155739.88;4982840;28;20042;-75
2022/07/23 02:54:54;;;;;;;6.05;1.25;;;;;;;12.75;100.00;155725.75;4984660;28;20034;-75
2022/07/23 02:57:20;;;;;;;4.60;1.40;;;;;;;12.64;100.00;155698.81;4954505;28;20649;-78
2022/07/23 02:59:46;;;;;;;4.82;1.35;;;;;;;12.56;100.00;155679.50;4988907;28;20550;-77
2022/07/23 03:02:11;;;;;;;4.75;1.20;;;;;;;12.50;100.00;155664.09;4990151;28;20038;-77
2022/07/23 03:04:37;;;;;;;9.70;1.30;;;;;;;12.41;100.00;155640.97;4991678;28;20030;-76
2022/07/23 03:07:03;;;;;;;3.42;1.27;;;;;;;12.44;100.00;155648.69;4990848;28;20042;-77
2022/07/23 03:09:29;;;;;;;5.13;1.20;;;;;;;12.45;100.00;155651.25;4958701;28;20048;-76
2022/07/23 03:11:54;;;;;;;8.77;1.15;;;;;;;12.42;100.00;155643.56;4982891;28;20042;-76
2022/07/23 03:14:20;;;;;;;4.70;1.33;;;;;;;12.43;100.00;155646.09;4979540;28;20069;-73
2022/07/23 03:16:46;;;;;;;6.88;1.42;;;;;;;12.40;100.00;155638.44;4980909;28;20026;-75
2022/07/23 03:19:11;;;;;;;5.32;1.30;;;;;;;12.47;100.00;155656.44;4983714;28;20042;-74
2022/07/23 03:21:40;;;;;;;4.70;1.20;;;;;;;12.44;100.00;155648.69;5000136;28;20112;-76
2022/07/23 03:24:09;;;;;;;9.80;1.45;;;;;;;12.43;100.00;155646.09;5002698;28;20499;-75
2022/07/23 03:26:34;;;;;;;4.97;1.48;;;;;;;12.41;100.00;155640.97;4961064;28;20046;-77
2022/07/23 03:29:01;;;;;;;2.95;1.20;;;;;;;12.37;100.00;155631.97;4992504;28;20036;-75
2022/07/23 03:31:27;;;;;;;3.53;1.40;;;;;;;12.37;100.00;155630.72;4986911;28;20496;-76
2022/07/23 03:33:53;;;;;;;4.50;1.23;;;;;;;12.38;100.00;155634.56;5003172;28;20034;-75
2022/07/23 03:36:19;;;;;;;4.22;1.10;;;;;;;12.40;100.00;155639.72;5005618;28;20439;-76
2022/07/23 03:38:45;;;;;;;3.25;1.50;;;;;;;12.38;100.00;155634.56;4978610;28;20038;-76
2022/07/23 03:41:11;;;;;;;3.35;1.33;;;;;;;12.34;100.00;155624.31;5004209;28;20126;-75
2022/07/23 03:43:37;;;;;;;7.82;1.80;;;;;;;12.31;100.00;155616.56;4988161;28;20411;-75
2022/07/23 03:46:02;;;;;;;3.83;1.33;;;;;;;12.31;100.00;155616.56;4986736;28;20259;-77
2022/07/23 03:48:29;;;;;;;7.95;1.65;;;;;;;12.27;100.00;155607.59;4991544;28;20121;-76
2022/07/23 03:50:54;;;;;;;3.30;1.45;;;;;;;12.30;100.00;155612.72;4992033;28;20129;-75
2022/07/23 03:53:20;;;;;;;8.07;1.88;;;;;;;12.24;100.00;155599.91;4993125;28;20065;-76
2022/07/23 03:55:46;;;;;;;10.55;1.48;;;;;;;12.24;100.00;155598.59;4956061;28;20065;-76
2022/07/23 03:58:14;;;;;;;5.03;1.63;;;;;;;12.21;100.00;155592.19;4966570;28;20138;-76
2022/07/23 04:00:40;;;;;;;4.65;1.50;;;;;;;12.22;100.00;155594.78;4972764;28;20654;-75
2022/07/23 04:03:05;;;;;;;3.88;1.50;;;;;;;12.33;100.00;155621.72;4980584;28;20130;-75
2022/07/23 04:05:32;;;;;;;6.22;1.90;;;;;;;12.40;100.00;155638.44;4999514;28;20112;-75
2022/07/23 04:08:05;;;;;;;7.00;1.60;;;;;;;12.45;100.00;155651.25;4997424;28;20491;-75
2022/07/23 04:10:31;;;;;;;3.03;1.30;;;;;;;12.60;100.00;155688.50;4964659;28;20038;-75
2022/07/23 04:12:57;;;;;;;4.20;1.77;;;;;;;12.76;100.00;155728.34;4962436;28;20088;-75
2022/07/23 04:15:25;;;;;;;4.38;1.70;;;;;;;12.92;100.00;155768.16;4988965;28;20034;-77
2022/07/23 04:17:51;;;;;;;5.95;1.55;;;;;;;13.03;100.00;155797.75;4968922;28;20031;-76
2022/07/23 04:20:18;;;;;;;3.72;1.38;;;;;;;13.16;100.00;155828.56;4985735;28;20038;-76
2022/07/23 04:22:51;;;;;;;2.90;1.60;;;;;;;13.24;100.00;155849.09;4983571;28;20045;-77
2022/07/23 04:25:17;;;;;;;3.95;1.35;;;;;;;13.31;100.00;155865.88;5003334;28;20034;-76
2022/07/23 04:27:43;;;;;;;3.50;1.30;;;;;;;13.36;100.00;155878.75;5002941;28;20632;-75
2022/07/23 04:30:09;;;;;;;5.03;1.60;;;;;;;13.39;100.00;155886.41;4986071;28;20097;-75
2022/07/23 04:32:35;;;;;;;7.05;1.50;;;;;;;13.37;100.00;155881.28;5003747;28;20035;-76
2022/07/23 04:35:04;;;;;;;4.05;1.75;;;;;;;13.36;100.00;155878.75;4986210;28;20035;-76
2022/07/23 04:37:30;;;;;;;7.82;1.80;;;;;;;13.36;100.00;155880.00;5005277;28;20103;-75
2022/07/23 04:39:55;;;;;;;5.63;1.70;;;;;;;13.37;100.00;155881.28;4973450;28;20360;-75
2022/07/23 04:42:23;;;;;;;4.72;1.52;;;;;;;13.37;100.00;155882.59;4979811;28;20092;-77
2022/07/23 04:44:49;;;;;;;5.85;1.77;;;;;;;13.39;100.00;155886.41;4979349;28;20034;-75
2022/07/23 04:47:16;;;;;;;6.20;1.80;;;;;;;13.38;100.00;155885.16;4985354;28;20034;-76
2022/07/23 04:49:43;;;;;;;5.60;1.80;;;;;;;13.37;100.00;155881.28;4961837;28;20038;-76
2022/07/23 04:52:09;;;;;;;4.60;2.13;;;;;;;13.40;100.00;155889.00;4995431;28;20097;-76
2022/07/23 04:54:35;;;;;;;6.47;2.00;;;;;;;13.47;100.00;155907.00;4998482;28;20816;-76
2022/07/23 04:57:01;;;;;;;5.25;2.30;;;;;;;13.46;100.00;155904.44;4985433;28;20035;-76
2022/07/23 04:59:27;;;;;;;11.27;2.35;;;;;;;13.45;100.00;155901.88;4987520;28;20447;-76
2022/07/23 05:01:57;;;;;;;13.48;2.50;;;;;;;13.44;100.00;155900.56;4947977;28;20038;-75
2022/07/23 05:04:24;;;;;;;5.47;2.58;;;;;;;13.53;100.00;155921.16;4985161;28;20073;-76
2022/07/23 05:06:50;;;;;;;5.18;2.30;;;;;;;13.62;100.00;155944.28;4982043;28;20078;-77
2022/07/23 05:09:15;;;;;;;5.10;2.30;;;;;;;13.66;100.00;155953.28;4971500;28;20034;-76
2022/07/23 05:11:41;;;;;;;5.53;2.53;;;;;;;13.86;100.00;156003.41;5001160;28;20045;-74
2022/07/23 05:14:07;;;;;;;7.20;2.83;;;;;;;13.83;100.00;155998.25;4968979;28;20046;-78
2022/07/23 05:16:33;;;;;;;6.07;2.50;;;;;;;13.84;100.00;155999.53;4991630;28;20109;-76
2022/07/23 05:19:04;;;;;;;6.30;2.72;;;;;;;13.87;100.00;156006.00;5001501;28;20031;-76
2022/07/23 05:21:33;;;;;;;9.55;2.70;;;;;;;13.85;100.00;156002.13;4974448;28;20042;-75
2022/07/23 05:23:59;;;;;;;8.00;3.33;;;;;;;13.90;100.00;156013.69;4973086;28;20060;-75
2022/07/23 05:26:25;;;;;;;7.25;3.10;;;;;;;13.93;100.00;156021.41;5001970;28;20451;-77
2022/07/23 05:28:51;;;;;;;3.67;2.42;;;;;;;13.90;100.00;156013.69;4964100;28;20034;-75
2022/07/23 05:31:19;;;;;;;4.63;2.67;;;;;;;13.94;100.00;156024.00;4985949;28;20561;-75
2022/07/23 05:33:45;;;;;;;4.22;2.60;;;;;;;13.99;100.00;156038.13;4974542;28;20026;-75
2022/07/23 05:36:11;;;;;;;4.35;2.58;;;;;;;13.98;100.00;156035.56;4986076;28;20041;-74
2022/07/23 05:38:48;;;;;;;6.60;2.80;;;;;;;14.05;100.00;156052.25;4973817;28;20036;-76
2022/07/23 05:41:14;;;;;;;8.55;3.45;;;;;;;14.15;100.00;156077.97;4984973;28;20034;-75
2022/07/23 05:43:40;;;;;;;10.38;3.03;;;;;;;14.24;100.00;156098.53;4957497;28;20407;-75
2022/07/23 05:46:09;;;;;;;8.43;2.85;;;;;;;14.33;100.00;156122.97;4966417;28;20518;-75
2022/07/23 05:48:37;;;;;;;6.22;2.63;;;;;;;14.45;100.00;156152.56;4962757;28;20040;-75
2022/07/23 05:51:11;;;;;;;4.13;2.70;;;;;;;14.51;100.00;156168.00;4967081;28;20495;-75
2022/07/23 05:53:38;;;;;;;6.53;2.97;;;;;;;14.51;100.00;156166.72;4961021;28;20037;-73
2022/07/23 05:56:08;;;;;;;8.48;2.60;;;;;;;14.54;100.00;156174.41;5004318;28;20484;-74
2022/07/23 05:58:35;;;;;;;9.93;3.30;;;;;;;14.57;100.00;156182.19;4974770;28;20695;-74
2022/07/23 06:01:01;;;;;;;7.65;3.05;;;;;;;14.56;100.00;156179.53;4976396;28;20035;-76
2022/07/23 06:03:31;;;;;;;5.30;2.55;;;;;;;14.68;100.00;156209.22;4983307;28;20176;-75
2022/07/23 06:05:57;;;;;;;4.55;2.50;;;;;;;14.69;100.00;156211.75;4992364;28;20542;-75
2022/07/23 06:08:23;;;;;;;5.70;2.40;;;;;;;14.69;100.00;156213.06;4986165;28;20445;-75
2022/07/23 06:10:49;;;;;;;4.68;2.20;;;;;;;14.74;100.00;156225.91;4975674;28;20588;-75
2022/07/23 06:13:18;;;;;;;6.65;2.50;;;;;;;14.74;100.00;156225.91;4992645;28;20746;-76
2022/07/23 06:15:44;;;;;;;7.60;2.17;;;;;;;14.80;100.00;156240.06;4985992;28;20038;-76
2022/07/23 06:18:09;;;;;;;7.00;2.15;;;;;;;14.88;100.00;156260.66;4979889;28;20490;-75
2022/07/23 06:20:35;;;;;;;5.32;1.95;;;;;;;14.94;100.00;156276.09;4968953;28;20400;-77
2022/07/23 06:23:00;;;;;;;4.60;1.50;;;;;;;15.09;100.00;156312.13;4974630;28;20561;-77
2022/07/23 06:25:30;;;;;;;1.80;1.30;;;;;;;15.13;100.00;156323.69;4968395;28;20127;-75
2022/07/23 06:27:56;;;;;;;4.55;0.93;;;;;;;15.24;100.00;156350.72;4965482;28;20039;-75
2022/07/23 06:30:22;;;;;;;1.55;1.00;;;;;;;15.39;100.00;156388.03;4983139;28;20064;-76
2022/07/23 06:32:48;;;;;;;2.45;0.80;;;;;;;15.55;100.00;156427.91;4985768;28;20523;-76
2022/07/23 06:35:15;;;;;;;2.30;1.10;;;;;;;15.65;100.00;156452.34;4983448;28;20042;-76
2022/07/23 06:37:40;;;;;;;3.05;0.80;;;;;;;15.79;100.00;156487.16;5002897;28;20060;-76
2022/07/23 06:40:07;;;;;;;2.40;0.82;;;;;;;15.76;100.00;156482.03;4986190;28;20035;-76
2022/07/23 06:42:36;;;;;;;1.67;0.68;;;;;;;15.82;100.00;156494.88;4979835;28;20038;-76
2022/07/23 06:45:03;;;;;;;1.77;0.60;;;;;;;15.83;100.00;156498.72;4994267;28;20038;-76
2022/07/23 06:47:29;;;;;;;5.55;1.00;;;;;;;15.86;100.00;156506.47;4978632;28;20542;-77
2022/07/23 06:49:55;;;;;;;3.10;1.20;;;;;;;15.82;100.00;156496.13;4996335;28;20034;-76
2022/07/23 06:52:23;;;;;;;8.13;1.30;;;;;;;15.88;100.00;156510.28;4989831;28;20042;-76
2022/07/23 06:54:49;;;;;;;5.43;1.08;;;;;;;15.89;100.00;156514.16;4990268;28;20092;-75
2022/07/23 06:57:15;;;;;;;3.45;0.93;;;;;;;15.94;100.00;156527.06;4964277;28;20038;-75
2022/07/23 06:59:40;;;;;;;3.75;1.17;;;;;;;15.98;100.00;156534.78;4958527;28;20034;-75
2022/07/23 07:02:07;;;;;;;4.70;1.15;;;;;;;16.01;100.00;156542.47;4986890;28;20050;-74
2022/07/23 07:04:33;;;;;;;4.35;1.42;;;;;;;15.89;100.00;156514.16;4992624;28;20053;-75
2022/07/23 07:06:58;;;;;;;2.75;1.10;;;;;;;15.84;100.00;156500.00;4971775;28;20066;-75
2022/07/23 07:09:24;;;;;;;4.00;1.38;;;;;;;15.83;100.00;156497.47;4973745;28;20189;-75
2022/07/23 07:11:50;;;;;;;3.17;1.08;;;;;;;15.84;100.00;156501.31;4970701;28;20394;-75
2022/07/23 07:14:16;;;;;;;8.52;1.42;;;;;;;15.93;100.00;156523.19;4983586;28;20045;-75
2022/07/23 07:16:41;;;;;;;4.28;1.50;;;;;;;15.96;100.00;156532.19;4991010;28;20042;-76
2022/07/23 07:19:07;;;;;;;3.90;1.30;;;;;;;16.06;100.00;156555.38;4988516;28;20039;-75
2022/07/23 07:21:34;;;;;;;4.70;1.33;;;;;;;16.17;100.00;156583.69;4976378;28;20558;-74
2022/07/23 07:23:59;;;;;;;3.78;1.13;;;;;;;16.20;100.00;156590.09;4999404;28;20042;-75
2022/07/23 07:26:25;;;;;;;2.63;1.20;;;;;;;16.34;100.00;156626.16;4990391;28;20053;-75
2022/07/23 07:28:51;;;;;;;5.05;1.10;;;;;;;16.45;100.00;156654.50;4986427;28;20042;-76
2022/07/23 07:31:17;;;;;;;4.70;1.48;;;;;;;16.52;100.00;156672.53;4980552;28;20041;-76
2022/07/23 07:33:42;;;;;;;1.45;1.20;;;;;;;16.54;100.00;156677.69;4989187;28;20042;-75
2022/07/23 07:36:08;;;;;;;3.97;0.82;;;;;;;16.69;100.00;156713.75;4991068;28;20046;-77
2022/07/23 07:38:34;;;;;;;2.63;0.80;;;;;;;16.74;100.00;156726.59;4974309;28;20491;-74
2022/07/23 07:41:00;;;;;;;3.15;0.60;;;;;;;16.86;99.45;156757.56;5006321;28;20335;-75
2022/07/23 07:43:25;;;;;;;3.03;0.60;;;;;;;16.99;98.57;156788.47;4968171;28;20583;-75
2022/07/23 07:45:51;;;;;;;2.25;0.70;;;;;;;17.07;97.90;156809.09;4992601;28;20038;-76
2022/07/23 07:48:16;;;;;;;1.88;0.88;;;;;;;17.00;97.66;156792.31;4988795;28;20114;-77
2022/07/23 07:50:42;;;;;;;3.20;0.80;;;;;;;16.74;97.50;156726.59;4967644;28;20824;-75
2022/07/23 07:53:08;;;;;;;1.38;0.57;;;;;;;16.57;98.97;156684.09;5004563;28;20031;-76
2022/07/23 07:55:34;;;;;;;3.30;0.80;;;;;;;16.67;100.00;156708.56;5005476;28;20141;-75
2022/07/23 07:58:00;;;;;;;2.78;0.65;;;;;;;16.73;100.00;156725.31;4988857;28;20030;-74
2022/07/23 08:00:26;;;;;;;3.50;0.90;;;;;;;16.83;100.00;156748.56;4984219;28;20039;-75
2022/07/23 08:02:54;;;;;;;2.20;0.80;;;;;;;16.87;99.91;156760.13;4980028;28;20061;-75
2022/07/23 08:05:21;;;;;;;3.80;0.90;;;;;;;16.92;98.99;156771.75;4982184;28;21257;-76
2022/07/23 08:07:47;;;;;;;2.65;0.90;;;;;;;17.20;100.00;156841.31;4971880;28;20030;-75
2022/07/23 08:10:13;;;;;;;2.85;0.73;;;;;;;17.59;93.41;156940.44;4976982;28;20069;-76
2022/07/23 08:12:45;;;;;;;1.80;0.70;;;;;;;17.67;95.91;156961.09;4971793;28;20047;-74
2022/07/23 08:15:12;;;;;;;2.58;0.50;;;;;;;17.74;93.92;156977.81;4987192;28;20093;-77
2022/07/23 08:17:38;;;;;;;1.88;0.70;;;;;;;17.70;92.80;156967.53;4978695;28;20534;-75
2022/07/23 08:20:06;;;;;;;0.75;0.50;;;;;;;17.44;91.50;156901.81;4973972;28;20053;-75
2022/07/23 08:22:50;;;;;;;1.20;0.57;;;;;;;16.99;93.97;156788.47;4990252;28;20066;-73
2022/07/23 08:25:21;;;;;;;1.15;0.60;;;;;;;16.73;98.88;156725.31;4984069;28;20097;-75
2022/07/23 08:27:47;;;;;;;0.70;0.40;;;;;;;16.52;100.00;156671.25;4971260;28;20049;-74
2022/07/23 08:30:13;;;;;;;5.35;0.50;;;;;;;16.76;100.00;156730.47;4987324;28;20516;-75
2022/07/23 08:33:00;;;;;;;0.82;0.43;;;;;;;16.86;97.57;156757.56;4985822;28;20116;-77
2022/07/23 08:35:34;;;;;;;2.55;0.50;;;;;;;17.09;98.66;156815.50;4986242;28;20057;-75
2022/07/23 08:38:02;;;;;;;3.40;0.70;;;;;;;16.97;98.32;156784.63;4981357;28;20477;-75
2022/07/23 08:40:30;;;;;;;1.90;0.55;;;;;;;16.70;99.27;156716.28;5003261;28;20041;-75
2022/07/23 08:42:56;;;;;;;2.97;1.00;;;;;;;16.20;100.00;156591.44;4984263;28;20068;-75
2022/07/23 08:45:23;;;;;;;2.47;0.80;;;;;;;16.07;100.00;156559.25;4987228;28;20176;-75
2022/07/23 08:47:58;;;;;;;4.25;1.13;;;;;;;15.82;100.00;156494.88;4980884;28;20030;-75
2022/07/23 08:50:25;;;;;;;2.08;0.98;;;;;;;15.73;100.00;156474.28;5001679;28;20051;-77
2022/07/23 08:52:56;;;;;;;4.50;0.80;;;;;;;15.64;100.00;156451.06;5001412;28;20072;-76
2022/07/23 08:55:23;;;;;;;2.08;0.60;;;;;;;15.77;100.00;156484.56;4999813;28;20840;-76
2022/07/23 08:57:50;;;;;;;1.20;0.65;;;;;;;15.93;100.00;156524.44;4988004;28;20031;-77
2022/07/23 09:00:16;;;;;;;2.10;0.70;;;;;;;16.10;100.00;156566.94;5002813;28;20385;-75
2022/07/23 09:02:43;;;;;;;1.52;0.50;;;;;;;16.25;99.24;156603.00;5002268;28;20497;-74
2022/07/23 09:05:11;;;;;;;2.03;0.40;;;;;;;16.37;100.00;156632.59;4984755;28;20455;-74
2022/07/23 09:07:38;;;;;;;1.55;0.40;;;;;;;16.65;99.01;156703.41;4986782;28;20076;-75
2022/07/23 09:10:10;;;;;;;0.68;0.40;;;;;;;16.83;95.65;156748.56;4975197;28;20116;-75
2022/07/23 09:12:37;;;;;;;2.17;0.30;;;;;;;17.03;95.14;156800.06;4968953;28;20041;-74
2022/07/23 09:15:06;;;;;;;1.02;0.50;;;;;;;17.34;92.18;156876.06;4995821;28;20033;-76
2022/07/23 09:17:37;;;;;;;3.05;0.40;;;;;;;17.61;89.54;156945.66;4968948;28;20092;-76
2022/07/23 09:20:12;;;;;;;4.15;0.50;;;;;;;17.84;89.29;157002.34;5003078;28;20085;-75
2022/07/23 09:22:39;;;;;;;0.93;0.22;;;;;;;17.86;85.31;157007.53;4985293;28;20042;-76
2022/07/23 09:25:16;;;;;;;1.75;0.45;;;;;;;17.99;86.06;157039.72;4984619;28;20044;-76
2022/07/23 09:28:02;;;;;;;1.35;0.32;;;;;;;18.27;87.60;157111.91;4984730;28;20046;-77
2022/07/23 09:30:31;;;;;;;1.17;0.40;;;;;;;18.27;90.50;157110.59;4985519;28;20118;-75
2022/07/23 09:33:05;;;;;;;1.13;0.50;;;;;;;18.38;85.31;157138.94;4974861;28;20029;-76
2022/07/23 09:35:54;;;;;;;1.63;0.40;;;;;;;18.42;84.87;157149.31;4975503;28;20414;-75
2022/07/23 09:38:22;;;;;;;2.08;0.50;;;;;;;18.53;88.67;157176.34;4985552;28;20087;-75
2022/07/23 09:41:08;;;;;;;3.03;0.60;;;;;;;18.62;84.66;157199.53;4959871;28;20112;-75
2022/07/23 09:43:34;;;;;;;1.90;0.50;;;;;;;18.52;83.52;157173.78;4975121;28;20159;-73
2022/07/23 09:46:22;;;;;;;1.00;0.47;;;;;;;18.68;86.24;157215.06;4985624;28;20037;-76
2022/07/23 09:48:48;;;;;;;1.80;0.50;;;;;;;18.92;87.02;157274.38;4978184;28;20038;-77
2022/07/23 09:53:49;;;;;;;1.75;0.40;;;;;;;19.42;82.66;157400.75;4971366;28;20068;-74
2022/07/23 09:56:15;;;;;;;1.15;0.30;;;;;;;19.63;87.16;157453.63;4984242;28;20111;-75
2022/07/23 09:58:48;;;;;;;0.30;0.28;;;;;;;19.64;82.25;157454.91;4985141;28;20606;-75
2022/07/23 10:01:14;;;;;;;2.28;0.40;;;;;;;19.74;79.94;157479.47;5002033;28;20589;-75
2022/07/23 10:03:41;;;;;;;1.83;0.52;;;;;;;19.48;83.17;157414.94;4978164;28;20117;-75
2022/07/23 10:06:31;;;;;;;1.02;0.35;;;;;;;19.32;78.38;157373.66;4989031;28;20578;-75
2022/07/23 10:09:52;;;;;;;0.63;0.32;;;;;;;19.18;83.88;157338.88;4969839;28;20046;-77
2022/07/23 10:15:10;;;;;;;4.75;0.60;;;;;;;19.23;84.66;157351.72;4973693;28;20042;-76
2022/07/23 10:17:36;;;;;;;2.63;0.40;;;;;;;19.38;79.61;157389.13;4984769;28;20041;-76
2022/07/23 10:20:03;;;;;;;0.90;0.35;;;;;;;19.48;81.16;157413.63;4949423;28;20411;-74
2022/07/23 10:22:36;;;;;;;3.13;0.50;;;;;;;19.40;78.44;157394.28;5001198;28;20044;-75
2022/07/23 10:25:32;;;;;;;0.93;0.40;;;;;;;19.40;85.08;157394.28;4985642;28;20042;-74
2022/07/23 10:28:40;;;;;;;2.22;0.40;;;;;;;19.30;80.40;157369.78;4981898;28;20088;-76
2022/07/23 10:31:32;;;;;;;1.10;0.40;;;;;;;19.30;83.95;157368.50;4997719;28;20506;-76
2022/07/23 10:34:11;;;;;;;;;;;;;;;19.35;76.88;157381.44;4978119;28;20037;-75
2022/07/23 10:36:57;;;;;;;1.27;0.20;;;;;;;19.36;76.73;157383.97;4998364;28;19918;-75
2022/07/23 10:39:31;;;;;;;1.30;0.30;;;;;;;19.36;77.52;157385.25;4983807;28;20050;-74
2022/07/23 10:42:10;;;;;;;1.35;0.30;;;;;;;19.65;78.31;157458.78;4970275;28;20038;-76
2022/07/23 10:45:22;;;;;;;1.95;0.20;;;;;;;19.98;74.39;157541.38;4982940;28;20046;-75
2022/07/23 10:47:48;;;;;;;3.55;0.40;;;;;;;20.14;72.64;157581.41;4985362;28;20074;-76
2022/07/23 10:50:31;;;;;;;2.38;0.20;;;;;;;20.30;71.42;157620.09;4984744;28;20033;-76
2022/07/23 10:53:09;;;;;;;0.85;0.20;;;;;;;20.74;70.65;157732.44;4964587;28;20037;-75
2022/07/23 10:55:34;;;;;;;0.32;0.13;;;;;;;20.90;65.51;157772.41;4957012;28;20038;-76
2022/07/23 10:58:05;;;;;;;2.50;0.20;;;;;;;20.80;66.05;157746.63;5002742;28;20030;-77
2022/07/23 11:00:32;;;;;;;0.15;0.15;;;;;;;20.91;66.60;157775.00;4989308;28;20527;-77
2022/07/23 11:03:07;;;;;;;0.60;0.20;;;;;;;20.78;66.52;157742.75;4999066;28;20043;-75
2022/07/23 11:05:42;;;;;;;1.55;0.35;;;;;;;21.13;66.35;157830.47;4977814;28;20367;-76
2022/07/23 11:08:10;;;;;;;0.20;0.20;;;;;;;21.39;66.89;157895.03;4966227;28;20073;-75
2022/07/23 11:10:39;;;;;;;2.80;0.30;;;;;;;21.57;68.52;157940.31;4985138;28;20041;-77
2022/07/23 11:13:24;;;;;;;0.68;0.20;;;;;;;21.51;67.08;157926.09;4984075;28;20027;-76
2022/07/23 11:16:05;;;;;;;0.73;0.30;;;;;;;21.33;64.96;157879.56;4967960;28;20042;-75
2022/07/23 11:18:40;;;;;;;1.15;0.30;;;;;;;20.71;66.26;157724.66;4994642;28;20038;-75
2022/07/23 11:21:21;;;;;;;1.17;0.30;;;;;;;20.13;72.79;157578.78;4980920;28;20031;-75
2022/07/23 11:24:15;;;;;;;1.38;0.38;;;;;;;19.84;76.32;157505.28;4984919;28;20038;-74
2022/07/23 11:26:41;;;;;;;1.13;0.32;;;;;;;19.90;74.28;157520.75;4982487;28;20561;-76
2022/07/23 11:29:25;;;;;;;1.95;0.40;;;;;;;19.92;75.69;157524.63;4970132;28;20141;-77
2022/07/23 11:32:17;;;;;;;2.00;0.30;;;;;;;20.18;72.42;157590.44;4983979;28;20111;-76